Martinsburg, Iowa
Current Conditions -  °F | °C
As of 3:53 PM on Monday 22 Dec 2014 (Local Time) from KOTM Reporting Station
Moderate Fog Moderate Fog  
Wind Chill: 30°   Ceiling: 200
Heat Index: 38°   Visibility: 0.5mi
Dew Point: 37°   Wind: 12mph
Humidity: 97%   Direction: 120°ESE
Pressure: 29.48"   Gusts: NA
Location:  41.18°N, 92.25°W
Report Text: KOTM 222153Z AUTO 12010KT 1/2SM FG VV002 03/03 A2948 RMK AO2 SLP988 T00330028
Loading
Personal Weather Stations






























Interactive Weather Map New forecast layout! Learn more

10-Day Weather Forecast

Advertisements
Track Severe Weather on mobile